Time;durP1;ratioP1;P1;durP2;ratioP2;P2;SDS_P1;SDS_P2;PMS_P1;PMS_P2;Temp;Humidity;BMP_temperature;BMP_pressure;BME280_temperature;BME280_humidity;BME280_pressure;Samples;Min_cycle;Max_cycle;Signal;HPM_P1;HPM_P2
2022/06/27 00:01:26;;;;;;;0.00;0.00;;;18.20;99.90;;;;;;4978904;28;20072;-57
2022/06/27 00:03:51;;;;;;;0.00;0.00;;;18.20;99.90;;;;;;4979975;28;20627;-58
2022/06/27 00:06:19;;;;;;;0.00;0.00;;;18.20;99.90;;;;;;4980322;28;20031;-56
2022/06/27 00:08:47;;;;;;;0.00;0.00;;;18.10;99.90;;;;;;4980882;28;20069;-57
2022/06/27 00:11:13;;;;;;;0.00;0.00;;;18.10;99.90;;;;;;4994639;28;20085;-57
2022/06/27 00:13:38;;;;;;;0.00;0.00;;;18.00;99.90;;;;;;4980459;28;20069;-58
2022/06/27 00:16:04;;;;;;;0.00;0.00;;;18.00;99.90;;;;;;4980652;28;20137;-57
2022/06/27 00:18:30;;;;;;;0.00;0.00;;;18.00;99.90;;;;;;4980002;28;20126;-57
2022/06/27 00:20:56;;;;;;;0.00;0.00;;;18.00;99.90;;;;;;4979784;28;20117;-57
2022/06/27 00:23:21;;;;;;;0.00;0.00;;;17.90;99.90;;;;;;4980163;28;20117;-57
2022/06/27 00:25:47;;;;;;;0.00;0.00;;;17.90;99.90;;;;;;4980191;28;20093;-58
2022/06/27 00:28:13;;;;;;;0.00;0.00;;;17.90;99.90;;;;;;4980072;28;20054;-57
2022/06/27 00:30:39;;;;;;;0.00;0.00;;;17.90;99.90;;;;;;4978041;28;20050;-58
2022/06/27 00:33:05;;;;;;;0.00;0.00;;;17.80;99.90;;;;;;4980234;28;20046;-57
2022/06/27 00:35:32;;;;;;;0.00;0.00;;;17.80;99.90;;;;;;4979922;28;20089;-57
2022/06/27 00:37:57;;;;;;;0.00;0.00;;;17.80;99.90;;;;;;4980581;28;20045;-57
2022/06/27 00:40:23;;;;;;;0.00;0.00;;;17.80;99.90;;;;;;4978114;28;20569;-57
2022/06/27 00:42:49;;;;;;;0.00;0.00;;;17.80;99.90;;;;;;4980752;28;20050;-57
2022/06/27 00:45:14;;;;;;;0.00;0.00;;;17.80;99.90;;;;;;4986565;28;20050;-58
2022/06/27 00:47:40;;;;;;;0.00;0.00;;;17.70;99.90;;;;;;4983504;28;20053;-58
2022/06/27 00:50:07;;;;;;;0.00;0.00;;;17.70;99.90;;;;;;4979531;28;20043;-58
2022/06/27 00:52:33;;;;;;;0.00;0.00;;;17.70;99.90;;;;;;4979751;28;20482;-58
2022/06/27 00:54:58;;;;;;;0.00;0.00;;;17.60;99.90;;;;;;4979165;28;20174;-58
2022/06/27 00:57:25;;;;;;;0.00;0.00;;;17.70;99.90;;;;;;4978466;28;20050;-58
2022/06/27 00:59:50;;;;;;;0.00;0.00;;;17.70;99.90;;;;;;4980006;28;20046;-58
2022/06/27 01:02:16;;;;;;;0.00;0.00;;;17.70;99.90;;;;;;4979076;28;20107;-56
2022/06/27 01:04:42;;;;;;;0.00;0.00;;;17.70;99.90;;;;;;4980037;28;20116;-58
2022/06/27 01:07:09;;;;;;;0.00;0.00;;;17.70;99.90;;;;;;4978144;28;20046;-57
2022/06/27 01:09:35;;;;;;;0.00;0.00;;;17.70;99.90;;;;;;4978107;28;20537;-58
2022/06/27 01:12:03;;;;;;;0.00;0.00;;;17.70;99.90;;;;;;4979515;28;20513;-58
2022/06/27 01:14:29;;;;;;;0.00;0.00;;;17.60;99.90;;;;;;4979082;28;20057;-57
2022/06/27 01:16:55;;;;;;;0.00;0.00;;;17.60;99.90;;;;;;4979181;28;20062;-57
2022/06/27 01:19:21;;;;;;;0.00;0.00;;;17.60;99.90;;;;;;4978985;28;20042;-57
2022/06/27 01:21:50;;;;;;;0.00;0.00;;;17.50;99.90;;;;;;4979550;28;20662;-58
2022/06/27 01:24:21;;;;;;;0.00;0.00;;;17.50;99.90;;;;;;4978560;28;20045;-58
2022/06/27 01:26:47;;;;;;;0.00;0.00;;;17.50;99.90;;;;;;4978399;28;20046;-58
2022/06/27 01:29:13;;;;;;;0.00;0.00;;;17.50;99.90;;;;;;4979089;28;20061;-57
2022/06/27 01:31:39;;;;;;;0.00;0.00;;;17.60;99.90;;;;;;4979069;28;20042;-57
2022/06/27 01:34:06;;;;;;;0.00;0.00;;;17.60;99.90;;;;;;4978217;28;20050;-58
2022/06/27 01:36:41;;;;;;;0.00;0.00;;;17.50;99.90;;;;;;4979309;28;20042;-58
2022/06/27 01:39:09;;;;;;;0.00;0.00;;;17.50;99.90;;;;;;4979274;28;20100;-58
2022/06/27 01:41:35;;;;;;;0.00;0.00;;;17.60;99.90;;;;;;4977069;28;20524;-58
2022/06/27 01:44:03;;;;;;;0.00;0.00;;;17.50;99.90;;;;;;4980038;28;20124;-58
2022/06/27 01:46:54;;;;;;;0.00;0.00;;;17.40;99.90;;;;;;4988497;28;20049;-58
2022/06/27 01:49:20;;;;;;;0.00;0.00;;;17.40;99.90;;;;;;4975804;28;20086;-59
2022/06/27 01:51:49;;;;;;;0.00;0.00;;;17.40;99.90;;;;;;4978943;28;20456;-58
2022/06/27 01:54:16;;;;;;;0.00;0.00;;;17.40;99.90;;;;;;4979144;28;20045;-58
2022/06/27 01:56:46;;;;;;;0.00;0.00;;;17.40;99.90;;;;;;4977955;28;20096;-58
2022/06/27 01:59:14;;;;;;;0.00;0.00;;;17.40;99.90;;;;;;4978664;28;20111;-58
2022/06/27 02:01:41;;;;;;;0.00;0.00;;;17.30;99.90;;;;;;4979118;28;20057;-58
2022/06/27 02:04:08;;;;;;;0.00;0.00;;;17.30;99.90;;;;;;4977427;28;20300;-58
2022/06/27 02:06:33;;;;;;;0.00;0.00;;;17.20;99.90;;;;;;4978355;28;20046;-58
2022/06/27 02:09:04;;;;;;;0.00;0.00;;;17.20;99.90;;;;;;4978077;28;20056;-58
2022/06/27 02:11:30;;;;;;;0.00;0.00;;;17.20;99.90;;;;;;4976613;28;20137;-58
2022/06/27 02:13:57;;;;;;;0.00;0.00;;;17.20;99.90;;;;;;4978491;28;20097;-58
2022/06/27 02:16:24;;;;;;;0.00;0.00;;;17.20;99.90;;;;;;4978218;28;20099;-58
2022/06/27 02:18:50;;;;;;;0.00;0.00;;;17.20;99.90;;;;;;4992668;28;20049;-58
2022/06/27 02:21:19;;;;;;;0.00;0.00;;;17.10;99.90;;;;;;4977433;28;20412;-58
2022/06/27 02:23:45;;;;;;;0.00;0.00;;;17.20;99.90;;;;;;4976937;28;20133;-58
2022/06/27 02:26:12;;;;;;;0.00;0.00;;;17.20;99.90;;;;;;4977942;28;20103;-58
2022/06/27 02:28:38;;;;;;;0.00;0.00;;;17.20;99.90;;;;;;4977963;28;20058;-58
2022/06/27 02:31:06;;;;;;;0.00;0.00;;;17.20;99.90;;;;;;4977457;28;20053;-58
2022/06/27 02:33:51;;;;;;;0.00;0.00;;;17.20;99.90;;;;;;4978686;28;20484;-58
2022/06/27 02:36:20;;;;;;;0.00;0.00;;;17.20;99.90;;;;;;4976970;28;20046;-58
2022/06/27 02:38:49;;;;;;;0.00;0.00;;;17.20;99.90;;;;;;4978292;28;20129;-58
2022/06/27 02:41:18;;;;;;;0.00;0.00;;;17.20;99.90;;;;;;4977838;28;20054;-58
2022/06/27 02:43:52;;;;;;;0.00;0.00;;;17.20;99.90;;;;;;4977783;28;20053;-58
2022/06/27 02:46:19;;;;;;;0.00;0.00;;;17.30;99.90;;;;;;4988563;28;20100;-58
2022/06/27 02:48:48;;;;;;;0.00;0.00;;;17.20;99.90;;;;;;4978592;28;20055;-58
2022/06/27 02:51:19;;;;;;;0.00;0.00;;;17.20;99.90;;;;;;4977789;28;20536;-58
2022/06/27 02:53:52;;;;;;;0.00;0.00;;;17.10;99.90;;;;;;4978789;28;20054;-57
2022/06/27 02:56:23;;;;;;;0.00;0.00;;;17.10;99.90;;;;;;4976968;28;20122;-57
2022/06/27 02:59:02;;;;;;;0.00;0.00;;;17.20;99.90;;;;;;4977032;28;20422;-58
2022/06/27 03:01:30;;;;;;;0.00;0.00;;;17.20;99.90;;;;;;4978240;28;20042;-58
2022/06/27 03:03:59;;;;;;;0.00;0.00;;;17.20;99.90;;;;;;4977555;28;20426;-58
2022/06/27 03:06:24;;;;;;;0.00;0.00;;;17.20;99.90;;;;;;4976962;28;20046;-58
2022/06/27 03:08:51;;;;;;;0.00;0.00;;;17.10;99.90;;;;;;4977823;28;20054;-58
2022/06/27 03:11:19;;;;;;;0.00;0.00;;;17.10;99.90;;;;;;4977158;28;20054;-56
2022/06/27 03:13:45;;;;;;;0.00;0.00;;;17.30;99.90;;;;;;4978463;28;20051;-58
2022/06/27 03:16:12;;;;;;;0.00;0.00;;;17.10;99.90;;;;;;4976110;28;20125;-58
2022/06/27 03:18:37;;;;;;;0.00;0.00;;;17.00;99.90;;;;;;4978168;28;20081;-57
2022/06/27 03:21:03;;;;;;;0.00;0.00;;;17.00;99.90;;;;;;4977658;28;20085;-58
2022/06/27 03:23:29;;;;;;;0.00;0.00;;;17.00;99.90;;;;;;4976845;28;20100;-58
2022/06/27 03:25:55;;;;;;;0.00;0.00;;;17.00;99.90;;;;;;4977101;28;20048;-57
2022/06/27 03:28:21;;;;;;;0.00;0.00;;;16.90;99.90;;;;;;4975954;28;20120;-57
2022/06/27 03:30:47;;;;;;;0.00;0.00;;;16.90;99.90;;;;;;4981956;28;20080;-58
2022/06/27 03:33:13;;;;;;;0.00;0.00;;;16.90;99.90;;;;;;4980573;28;20524;-58
2022/06/27 03:35:39;;;;;;;0.00;0.00;;;16.90;99.90;;;;;;4981679;28;20092;-58
2022/06/27 03:38:05;;;;;;;0.00;0.00;;;16.90;99.90;;;;;;4980882;28;20488;-58
2022/06/27 03:40:31;;;;;;;0.00;0.00;;;16.90;99.90;;;;;;4980658;28;20058;-57
2022/06/27 03:42:57;;;;;;;0.00;0.00;;;16.90;99.90;;;;;;4980233;28;20121;-58
2022/06/27 03:45:22;;;;;;;0.00;0.00;;;16.90;99.90;;;;;;4988795;28;20488;-57
2022/06/27 03:47:54;;;;;;;0.00;0.00;;;16.90;99.90;;;;;;4984370;28;20121;-58
2022/06/27 03:50:21;;;;;;;0.00;0.00;;;16.90;99.90;;;;;;4979735;28;20120;-58
2022/06/27 03:52:47;;;;;;;0.00;0.00;;;16.90;99.90;;;;;;4981394;28;20437;-58
2022/06/27 03:55:13;;;;;;;0.00;0.00;;;16.80;99.90;;;;;;4980282;28;20116;-57
2022/06/27 03:57:46;;;;;;;0.00;0.00;;;16.60;99.90;;;;;;4980759;28;20441;-58
2022/06/27 04:00:12;;;;;;;0.00;0.00;;;16.50;99.90;;;;;;4980277;28;20049;-57
2022/06/27 04:02:38;;;;;;;0.00;0.00;;;16.40;99.90;;;;;;4979444;28;20047;-58
2022/06/27 04:05:04;;;;;;;0.00;0.00;;;16.40;99.90;;;;;;4980496;28;20165;-58
2022/06/27 04:07:30;;;;;;;0.00;0.00;;;16.30;99.90;;;;;;4980166;28;20515;-58
2022/06/27 04:09:57;;;;;;;0.00;0.00;;;16.30;99.90;;;;;;4978936;28;20051;-58
2022/06/27 04:12:23;;;;;;;0.00;0.00;;;16.30;99.90;;;;;;4979235;28;20056;-58
2022/06/27 04:14:49;;;;;;;0.00;0.00;;;16.40;99.90;;;;;;4979133;28;20093;-58
2022/06/27 04:17:15;;;;;;;0.00;0.00;;;16.40;99.90;;;;;;4979992;28;20069;-58
2022/06/27 04:19:41;;;;;;;0.00;0.00;;;16.40;99.90;;;;;;4980738;28;20050;-58
2022/06/27 04:22:08;;;;;;;0.00;0.00;;;16.50;99.90;;;;;;4978913;28;20508;-57
2022/06/27 04:24:35;;;;;;;0.00;0.00;;;16.50;99.90;;;;;;4979466;28;20061;-58
2022/06/27 04:27:01;;;;;;;0.00;0.00;;;16.50;99.90;;;;;;4979040;28;20048;-58
2022/06/27 04:29:28;;;;;;;0.00;0.00;;;16.50;99.90;;;;;;4980035;28;20042;-58
2022/06/27 04:31:54;;;;;;;0.00;0.00;;;16.50;99.90;;;;;;4980310;28;20057;-57
2022/06/27 04:34:20;;;;;;;0.00;0.00;;;16.40;99.90;;;;;;4979768;28;20046;-58
2022/06/27 04:36:46;;;;;;;0.00;0.00;;;16.60;99.90;;;;;;4980053;28;20456;-58
2022/06/27 04:39:15;;;;;;;0.00;0.00;;;16.40;99.90;;;;;;4979390;28;20608;-58
2022/06/27 04:41:43;;;;;;;0.00;0.00;;;16.40;99.90;;;;;;4980147;28;20063;-58
2022/06/27 04:44:10;;;;;;;0.00;0.00;;;16.50;99.90;;;;;;4981214;28;20034;-58
2022/06/27 04:46:35;;;;;;;0.00;0.00;;;16.40;99.90;;;;;;4988177;28;20468;-58
2022/06/27 04:49:01;;;;;;;0.00;0.00;;;16.40;99.90;;;;;;4979835;28;20061;-58
2022/06/27 04:51:27;;;;;;;0.00;0.00;;;16.40;99.90;;;;;;4979779;28;20486;-58
2022/06/27 04:53:52;;;;;;;0.00;0.00;;;16.40;99.90;;;;;;4979121;28;20572;-57
2022/06/27 04:56:19;;;;;;;0.00;0.00;;;16.50;99.90;;;;;;4978603;28;20050;-58
2022/06/27 04:58:45;;;;;;;0.00;0.00;;;16.50;99.90;;;;;;4980658;28;20073;-58
2022/06/27 05:01:11;;;;;;;0.00;0.00;;;16.50;99.90;;;;;;4979489;28;20058;-58
2022/06/27 05:03:36;;;;;;;0.00;0.00;;;16.50;99.90;;;;;;4979537;28;20250;-58
2022/06/27 05:06:03;;;;;;;0.00;0.00;;;16.50;99.90;;;;;;4979427;28;20050;-58
2022/06/27 05:08:28;;;;;;;0.00;0.00;;;16.50;99.90;;;;;;4979244;28;20054;-58
2022/06/27 05:10:54;;;;;;;0.00;0.00;;;16.50;99.90;;;;;;4978389;28;20046;-58
2022/06/27 05:13:19;;;;;;;0.00;0.00;;;16.50;99.90;;;;;;4979168;28;20105;-57
2022/06/27 05:15:45;;;;;;;0.00;0.00;;;16.50;99.90;;;;;;4980024;28;20486;-57
2022/06/27 05:18:14;;;;;;;0.00;0.00;;;16.60;99.90;;;;;;4979195;28;20046;-57
2022/06/27 05:20:42;;;;;;;0.00;0.00;;;16.60;99.90;;;;;;4978360;28;20057;-58
2022/06/27 05:23:08;;;;;;;0.00;0.00;;;16.70;99.90;;;;;;4978152;28;20429;-58
2022/06/27 05:25:34;;;;;;;0.00;0.00;;;16.80;99.90;;;;;;4978340;28;20144;-58
2022/06/27 05:28:02;;;;;;;0.00;0.00;;;16.80;99.90;;;;;;4979077;28;20073;-57
2022/06/27 05:30:28;;;;;;;0.00;0.00;;;16.80;99.90;;;;;;4978174;28;20046;-58
2022/06/27 05:32:54;;;;;;;0.00;0.00;;;16.80;99.90;;;;;;4979133;28;20053;-58
2022/06/27 05:35:21;;;;;;;0.00;0.00;;;17.00;99.90;;;;;;4978652;28;20108;-57
2022/06/27 05:37:48;;;;;;;0.00;0.00;;;17.00;99.90;;;;;;4978527;28;20074;-58
2022/06/27 05:40:14;;;;;;;0.00;0.00;;;16.90;99.90;;;;;;4978363;28;20049;-58
2022/06/27 05:42:40;;;;;;;0.00;0.00;;;16.90;99.90;;;;;;4978517;28;20042;-58
2022/06/27 05:45:08;;;;;;;0.00;0.00;;;17.00;99.90;;;;;;4984414;28;20615;-57
2022/06/27 05:47:36;;;;;;;0.00;0.00;;;17.00;99.90;;;;;;4983315;28;20354;-58
2022/06/27 05:50:04;;;;;;;0.00;0.00;;;16.90;99.90;;;;;;4978668;28;20393;-58
2022/06/27 05:52:30;;;;;;;0.00;0.00;;;17.00;99.90;;;;;;4978044;28;20414;-58
2022/06/27 05:54:56;;;;;;;0.00;0.00;;;17.10;99.90;;;;;;4977381;28;20058;-57
2022/06/27 05:57:24;;;;;;;0.00;0.00;;;17.10;99.90;;;;;;4978810;28;20104;-58
2022/06/27 05:59:52;;;;;;;0.00;0.00;;;17.20;99.90;;;;;;4978746;28;20058;-58
2022/06/27 06:02:18;;;;;;;0.00;0.00;;;17.10;99.90;;;;;;4977798;28;20130;-58
2022/06/27 06:04:44;;;;;;;0.00;0.00;;;17.10;99.90;;;;;;4978582;28;20049;-57
2022/06/27 06:07:12;;;;;;;0.10;0.08;;;17.20;99.90;;;;;;4978314;28;20557;-57
2022/06/27 06:09:38;;;;;;;0.00;0.00;;;17.10;99.90;;;;;;4977392;28;20123;-58
2022/06/27 06:12:04;;;;;;;0.00;0.00;;;17.10;99.90;;;;;;4978514;28;20081;-58
2022/06/27 06:14:30;;;;;;;0.00;0.00;;;17.10;99.90;;;;;;4977481;28;20130;-58
2022/06/27 06:16:55;;;;;;;0.00;0.00;;;17.10;99.90;;;;;;4978416;28;20117;-58
2022/06/27 06:19:21;;;;;;;0.00;0.00;;;17.10;99.90;;;;;;4977640;28;20042;-58
2022/06/27 06:21:46;;;;;;;0.00;0.00;;;17.10;99.90;;;;;;4977177;28;20042;-58
2022/06/27 06:24:12;;;;;;;0.00;0.00;;;17.20;99.90;;;;;;4977623;28;20038;-58
2022/06/27 06:26:38;;;;;;;0.00;0.00;;;17.10;99.90;;;;;;4978474;28;20042;-58
2022/06/27 06:29:13;;;;;;;0.00;0.00;;;17.10;99.90;;;;;;4977978;28;20057;-58
2022/06/27 06:31:45;;;;;;;0.00;0.00;;;17.10;99.90;;;;;;4977533;28;20057;-58
2022/06/27 06:34:13;;;;;;;0.00;0.00;;;17.10;99.90;;;;;;4978444;28;20050;-58
2022/06/27 06:36:40;;;;;;;0.00;0.00;;;17.10;99.90;;;;;;4978280;28;20052;-58
2022/06/27 06:39:06;;;;;;;0.00;0.00;;;17.10;99.90;;;;;;4976399;28;20480;-58
2022/06/27 06:41:33;;;;;;;0.00;0.00;;;17.20;99.90;;;;;;4977196;28;20042;-57
2022/06/27 06:43:59;;;;;;;0.00;0.00;;;17.20;99.90;;;;;;4979061;28;20042;-58
2022/06/27 06:46:27;;;;;;;0.00;0.00;;;17.20;99.90;;;;;;4987568;28;20050;-58
2022/06/27 06:48:58;;;;;;;0.00;0.00;;;17.20;99.90;;;;;;4977424;28;20049;-58
2022/06/27 06:51:24;;;;;;;0.00;0.00;;;17.10;99.90;;;;;;4994251;28;20060;-58
2022/06/27 06:53:50;;;;;;;0.00;0.00;;;17.10;99.90;;;;;;4995536;28;20074;-58
2022/06/27 06:56:16;;;;;;;0.00;0.00;;;17.10;99.90;;;;;;4996537;28;20042;-58
2022/06/27 06:58:42;;;;;;;0.00;0.00;;;17.10;99.90;;;;;;4997862;28;20046;-57
2022/06/27 07:01:08;;;;;;;0.00;0.00;;;17.10;99.90;;;;;;4997478;28;20050;-58
2022/06/27 07:03:34;;;;;;;0.00;0.00;;;17.10;99.90;;;;;;4996019;28;20077;-58
2022/06/27 07:06:02;;;;;;;0.00;0.00;;;17.10;99.90;;;;;;4995991;28;20049;-58
2022/06/27 07:08:29;;;;;;;0.00;0.00;;;17.20;99.90;;;;;;4982151;28;20050;-58
2022/06/27 07:10:55;;;;;;;0.00;0.00;;;17.20;99.90;;;;;;4980313;28;20460;-58
2022/06/27 07:13:21;;;;;;;0.00;0.00;;;17.20;99.90;;;;;;4980590;28;20108;-58
2022/06/27 07:15:47;;;;;;;0.00;0.00;;;17.20;99.90;;;;;;4981539;28;20484;-58
2022/06/27 07:18:14;;;;;;;0.08;0.00;;;17.10;99.90;;;;;;4981578;28;20053;-58
2022/06/27 07:20:40;;;;;;;0.00;0.00;;;17.20;99.90;;;;;;4981504;28;20058;-58
2022/06/27 07:23:06;;;;;;;0.00;0.00;;;17.10;99.90;;;;;;4980378;28;20415;-58
2022/06/27 07:25:34;;;;;;;0.00;0.00;;;17.20;99.90;;;;;;4980933;28;20047;-58
2022/06/27 07:28:00;;;;;;;0.00;0.00;;;17.20;99.90;;;;;;4980754;28;20133;-58
2022/06/27 07:30:28;;;;;;;0.00;0.00;;;17.30;99.90;;;;;;4981440;28;20541;-57
2022/06/27 07:32:54;;;;;;;0.00;0.00;;;17.30;99.90;;;;;;4995513;28;20089;-58
2022/06/27 07:35:20;;;;;;;0.00;0.00;;;17.20;99.90;;;;;;4980885;28;20070;-58
2022/06/27 07:37:52;;;;;;;0.00;0.00;;;17.30;99.90;;;;;;4981722;28;20073;-58
2022/06/27 07:40:22;;;;;;;0.00;0.00;;;17.30;99.90;;;;;;4979296;28;20137;-58
2022/06/27 07:42:50;;;;;;;0.00;0.00;;;17.30;99.90;;;;;;4981036;28;20046;-58
2022/06/27 07:45:18;;;;;;;0.00;0.00;;;17.30;99.90;;;;;;4985971;28;20046;-58
2022/06/27 07:47:46;;;;;;;0.00;0.00;;;17.20;99.90;;;;;;4997291;28;20060;-58
2022/06/27 07:50:36;;;;;;;0.00;0.00;;;17.00;99.90;;;;;;5000465;28;20046;-58
2022/06/27 07:53:12;;;;;;;0.00;0.00;;;17.00;99.90;;;;;;5000379;28;20045;-58
2022/06/27 07:55:42;;;;;;;0.00;0.00;;;17.00;99.90;;;;;;4998492;28;20052;-58
2022/06/27 07:58:16;;;;;;;0.00;0.00;;;17.00;99.90;;;;;;5000583;28;20049;-58
2022/06/27 08:00:44;;;;;;;0.00;0.00;;;17.10;99.90;;;;;;5000073;28;20120;-58
2022/06/27 08:05:57;;;;;;;0.00;0.00;;;17.10;99.90;;;;;;4999925;28;20049;-58
2022/06/27 08:08:23;;;;;;;0.00;0.00;;;17.10;99.90;;;;;;4998580;28;20214;-58
2022/06/27 08:10:52;;;;;;;0.00;0.00;;;17.20;99.90;;;;;;4999699;28;20934;-58
2022/06/27 08:13:18;;;;;;;0.00;0.00;;;17.20;99.90;;;;;;4999962;28;20053;-58
2022/06/27 08:15:45;;;;;;;0.00;0.00;;;17.40;99.90;;;;;;4996989;28;20567;-58
2022/06/27 08:18:11;;;;;;;0.00;0.00;;;17.50;99.90;;;;;;5000104;28;20049;-58
2022/06/27 08:20:37;;;;;;;0.00;0.00;;;17.60;99.90;;;;;;5000212;28;20050;-58
2022/06/27 08:23:03;;;;;;;0.00;0.00;;;17.60;99.90;;;;;;4999489;28;20044;-58
2022/06/27 08:25:29;;;;;;;0.00;0.00;;;17.50;99.90;;;;;;4998204;28;20441;-58
2022/06/27 08:27:55;;;;;;;0.00;0.00;;;17.60;99.90;;;;;;4997480;28;20053;-58
2022/06/27 08:30:25;;;;;;;0.00;0.00;;;17.70;99.90;;;;;;4998310;28;20511;-59
2022/06/27 08:32:55;;;;;;;0.00;0.00;;;17.90;99.90;;;;;;4998051;28;20073;-59
2022/06/27 08:35:22;;;;;;;0.00;0.00;;;17.90;99.90;;;;;;4999018;28;20095;-60
2022/06/27 08:37:50;;;;;;;0.00;0.00;;;17.90;99.90;;;;;;4999696;28;20058;-60
2022/06/27 08:40:17;;;;;;;0.00;0.00;;;18.10;99.90;;;;;;4998711;28;20516;-60
2022/06/27 08:42:44;;;;;;;0.00;0.00;;;17.90;99.90;;;;;;4999154;28;20048;-61
2022/06/27 08:45:13;;;;;;;0.00;0.00;;;17.90;99.90;;;;;;4993045;28;20050;-59
2022/06/27 08:47:41;;;;;;;0.00;0.00;;;17.90;99.90;;;;;;4983483;28;20038;-58
2022/06/27 08:50:08;;;;;;;0.00;0.00;;;17.90;99.90;;;;;;4978391;28;20394;-60
2022/06/27 08:52:39;;;;;;;0.00;0.00;;;18.00;99.90;;;;;;4979040;28;20038;-61
2022/06/27 08:55:09;;;;;;;0.00;0.00;;;18.00;99.90;;;;;;4978120;28;20073;-60
2022/06/27 08:57:41;;;;;;;0.00;0.00;;;18.10;99.90;;;;;;4978656;28;20034;-60
2022/06/27 09:00:12;;;;;;;0.00;0.00;;;18.20;99.90;;;;;;4979501;28;20093;-60
2022/06/27 09:02:42;;;;;;;0.00;0.00;;;18.00;99.90;;;;;;4979483;28;20054;-60
2022/06/27 09:05:26;;;;;;;0.00;0.00;;;17.90;99.90;;;;;;4978543;28;20056;-61
2022/06/27 09:07:52;;;;;;;0.00;0.00;;;17.90;99.90;;;;;;4978449;28;20124;-59
2022/06/27 09:10:30;;;;;;;0.00;0.00;;;17.90;99.90;;;;;;4976910;28;20062;-60
2022/06/27 09:13:05;;;;;;;0.00;0.00;;;17.90;99.90;;;;;;4979582;28;20042;-59
2022/06/27 09:15:52;;;;;;;0.00;0.00;;;17.80;99.90;;;;;;4979484;28;20152;-60
2022/06/27 09:18:24;;;;;;;0.00;0.00;;;17.90;99.90;;;;;;4979209;28;20136;-59
2022/06/27 09:20:58;;;;;;;0.00;0.00;;;17.80;99.90;;;;;;4979314;28;20386;-60
2022/06/27 09:23:49;;;;;;;0.00;0.00;;;17.80;99.90;;;;;;4976936;28;20520;-60
2022/06/27 09:26:22;;;;;;;0.00;0.00;;;17.70;99.90;;;;;;4978767;28;20556;-61
2022/06/27 09:29:01;;;;;;;0.00;0.00;;;17.70;99.90;;;;;;4978169;28;20060;-60
2022/06/27 09:31:28;;;;;;;0.00;0.00;;;17.70;99.90;;;;;;4978739;28;20281;-60
2022/06/27 09:34:26;;;;;;;0.00;0.00;;;17.70;99.90;;;;;;4979007;28;20259;-61
2022/06/27 09:37:03;;;;;;;0.00;0.00;;;17.90;99.90;;;;;;4965829;28;20062;-60
2022/06/27 09:39:32;;;;;;;0.00;0.00;;;17.70;99.90;;;;;;4976845;28;20054;-60
2022/06/27 09:42:13;;;;;;;0.00;0.00;;;17.60;99.90;;;;;;4978473;28;20049;-59
2022/06/27 09:44:45;;;;;;;0.00;0.00;;;17.60;99.90;;;;;;4979547;28;20042;-60
2022/06/27 09:47:25;;;;;;;0.05;0.05;;;17.60;99.90;;;;;;4990225;28;20046;-59
2022/06/27 09:49:52;;;;;;;0.00;0.00;;;17.60;99.90;;;;;;4997468;28;20053;-59
2022/06/27 09:52:20;;;;;;;0.00;0.00;;;17.60;99.90;;;;;;4996849;28;20567;-60
2022/06/27 09:54:48;;;;;;;0.00;0.00;;;17.50;99.90;;;;;;4997518;28;20042;-60
2022/06/27 09:57:16;;;;;;;0.00;0.00;;;17.50;99.90;;;;;;4998542;28;20073;-59
2022/06/27 09:59:44;;;;;;;0.00;0.00;;;17.50;99.90;;;;;;4998107;28;20093;-59
2022/06/27 10:02:11;;;;;;;0.00;0.00;;;17.50;99.90;;;;;;4998037;28;20042;-59
2022/06/27 10:04:37;;;;;;;0.00;0.00;;;17.50;99.90;;;;;;4998692;28;20087;-60
2022/06/27 10:07:07;;;;;;;0.13;0.10;;;17.50;99.90;;;;;;4997819;28;20042;-60
2022/06/27 10:09:35;;;;;;;0.00;0.00;;;17.50;99.90;;;;;;4995965;28;20053;-61
2022/06/27 10:12:23;;;;;;;0.00;0.00;;;17.50;99.90;;;;;;4997920;28;20556;-59
2022/06/27 10:15:10;;;;;;;0.00;0.00;;;17.60;99.90;;;;;;4997166;28;20382;-60
2022/06/27 10:17:38;;;;;;;0.00;0.00;;;17.60;99.90;;;;;;4997814;28;20683;-60
2022/06/27 10:20:15;;;;;;;0.00;0.00;;;17.60;99.90;;;;;;4997457;28;20134;-60
2022/06/27 10:22:41;;;;;;;0.00;0.00;;;17.60;99.90;;;;;;4998117;28;20049;-61
2022/06/27 10:25:25;;;;;;;0.00;0.00;;;17.60;99.90;;;;;;4996938;28;20073;-60
2022/06/27 10:28:22;;;;;;;0.00;0.00;;;17.50;99.90;;;;;;4995219;28;20041;-59
2022/06/27 10:30:56;;;;;;;0.00;0.00;;;17.60;99.90;;;;;;4981313;28;20437;-61
2022/06/27 10:33:28;;;;;;;0.00;0.00;;;17.70;99.90;;;;;;4997348;28;20045;-60
2022/06/27 10:38:26;;;;;;;0.00;0.00;;;17.60;99.90;;;;;;4996148;28;20172;-60
2022/06/27 10:40:53;;;;;;;0.00;0.00;;;17.70;99.90;;;;;;5001585;28;20588;-59
2022/06/27 10:43:41;;;;;;;0.00;0.00;;;17.70;99.90;;;;;;5001589;28;20065;-57
2022/06/27 10:46:09;;;;;;;0.00;0.00;;;17.90;99.90;;;;;;4989830;28;20046;-57
2022/06/27 10:48:37;;;;;;;0.00;0.00;;;17.80;99.90;;;;;;5002029;28;20451;-57
2022/06/27 10:51:18;;;;;;;0.00;0.00;;;17.80;99.90;;;;;;5001285;28;20052;-58
2022/06/27 10:54:04;;;;;;;0.00;0.00;;;17.90;99.90;;;;;;5001451;28;20057;-58
2022/06/27 10:56:37;;;;;;;0.00;0.00;;;18.00;99.90;;;;;;4990194;28;20097;-58
2022/06/27 10:59:03;;;;;;;0.00;0.00;;;18.20;99.90;;;;;;5001112;28;20120;-58
2022/06/27 11:01:30;;;;;;;0.00;0.00;;;18.30;99.90;;;;;;5001511;28;20520;-58
2022/06/27 11:03:57;;;;;;;0.00;0.00;;;18.30;99.90;;;;;;5000930;28;20071;-58
2022/06/27 11:06:23;;;;;;;0.00;0.00;;;18.20;99.90;;;;;;5000888;28;20054;-59
2022/06/27 11:08:54;;;;;;;0.00;0.00;;;18.30;99.90;;;;;;5000231;28;20085;-59
2022/06/27 11:11:27;;;;;;;0.10;0.00;;;18.30;99.90;;;;;;5000531;28;20061;-59
2022/06/27 11:13:58;;;;;;;0.00;0.00;;;18.30;99.90;;;;;;5000178;28;20074;-60
2022/06/27 11:16:28;;;;;;;0.00;0.00;;;18.40;99.90;;;;;;5001095;28;20045;-59
2022/06/27 11:19:02;;;;;;;0.00;0.00;;;18.50;99.90;;;;;;5000054;28;20141;-59
2022/06/27 11:21:38;;;;;;;0.00;0.00;;;18.50;99.90;;;;;;4999046;28;20053;-59
2022/06/27 11:24:09;;;;;;;0.00;0.00;;;18.60;99.90;;;;;;5000382;28;20049;-59
2022/06/27 11:26:45;;;;;;;0.00;0.00;;;18.80;99.90;;;;;;5001053;28;20089;-58
2022/06/27 11:32:13;;;;;;;0.00;0.00;;;18.90;99.90;;;;;;5000766;28;20061;-59
2022/06/27 11:34:47;;;;;;;0.00;0.00;;;18.90;99.90;;;;;;5001000;28;20493;-62
2022/06/27 11:37:18;;;;;;;0.00;0.00;;;18.90;99.90;;;;;;5001171;28;20092;-59
2022/06/27 11:40:05;;;;;;;0.00;0.00;;;18.70;99.90;;;;;;4998058;28;20050;-60
2022/06/27 11:42:32;;;;;;;0.00;0.00;;;18.80;99.90;;;;;;5000626;28;20091;-59
2022/06/27 11:45:08;;;;;;;0.00;0.00;;;18.70;99.90;;;;;;4994078;28;20040;-62
2022/06/27 11:47:35;;;;;;;0.00;0.00;;;18.80;99.90;;;;;;4986615;28;20386;-63
2022/06/27 11:50:07;;;;;;;0.00;0.00;;;18.90;99.90;;;;;;4980830;28;20071;-64
2022/06/27 11:52:41;;;;;;;0.00;0.00;;;19.10;99.90;;;;;;4979527;28;20097;-62
2022/06/27 11:55:11;;;;;;;0.00;0.00;;;19.20;99.90;;;;;;4987742;28;20050;-57
2022/06/27 11:57:36;;;;;;;0.00;0.00;;;19.50;99.90;;;;;;5000292;28;20057;-61
2022/06/27 12:00:06;;;;;;;0.00;0.00;;;19.50;99.90;;;;;;4999460;28;20079;-59
2022/06/27 12:02:36;;;;;;;0.00;0.00;;;19.60;99.90;;;;;;4982361;28;20034;-68
2022/06/27 12:05:03;;;;;;;0.00;0.00;;;19.60;99.90;;;;;;5000045;28;20049;-69
2022/06/27 12:07:29;;;;;;;0.00;0.00;;;19.70;99.90;;;;;;5000247;28;20050;-70
2022/06/27 12:09:55;;;;;;;0.00;0.00;;;19.90;99.90;;;;;;4998055;28;20066;-75
2022/06/27 12:12:26;;;;;;;0.00;0.00;;;20.00;99.90;;;;;;5000339;28;20416;-77
2022/06/27 12:14:54;;;;;;;0.00;0.00;;;20.00;99.90;;;;;;5000588;28;20140;-70
2022/06/27 12:17:21;;;;;;;0.00;0.00;;;20.10;99.90;;;;;;4998855;28;20046;-76
2022/06/27 12:19:46;;;;;;;0.00;0.00;;;20.10;99.90;;;;;;5000390;28;20121;-70
2022/06/27 12:22:18;;;;;;;0.00;0.00;;;20.20;99.90;;;;;;4999845;28;20138;-61
2022/06/27 12:24:47;;;;;;;0.00;0.00;;;20.10;99.90;;;;;;4998819;28;20893;-58
2022/06/27 12:27:12;;;;;;;0.00;0.00;;;20.00;99.90;;;;;;5000117;28;20574;-58
2022/06/27 12:29:38;;;;;;;0.00;0.00;;;19.50;99.90;;;;;;4999395;28;20038;-58
2022/06/27 12:32:04;;;;;;;0.00;0.00;;;19.40;99.90;;;;;;4999629;28;20500;-74
2022/06/27 12:34:31;;;;;;;0.00;0.00;;;19.00;99.90;;;;;;4999214;28;20108;-73
2022/06/27 12:36:57;;;;;;;0.00;0.00;;;18.70;99.90;;;;;;4999208;28;20050;-59
2022/06/27 12:39:23;;;;;;;0.00;0.00;;;18.30;99.90;;;;;;4998899;28;20053;-58
2022/06/27 12:41:50;;;;;;;0.00;0.00;;;18.60;99.90;;;;;;4999382;28;20524;-57
2022/06/27 12:44:16;;;;;;;0.00;0.00;;;18.30;99.90;;;;;;4995989;28;20049;-58
2022/06/27 12:46:42;;;;;;;0.00;0.00;;;18.20;99.90;;;;;;4988931;28;20046;-56
2022/06/27 12:49:07;;;;;;;0.00;0.00;;;18.20;99.90;;;;;;4980063;28;20108;-58
2022/06/27 12:51:33;;;;;;;0.00;0.00;;;18.20;99.90;;;;;;4979910;28;20406;-59
2022/06/27 12:54:00;;;;;;;0.00;0.00;;;18.10;99.90;;;;;;4978262;28;20034;-58
2022/06/27 12:56:26;;;;;;;0.03;0.03;;;18.10;99.90;;;;;;4979880;28;20047;-58
2022/06/27 12:58:52;;;;;;;0.00;0.00;;;18.10;99.90;;;;;;4979297;28;20118;-59
2022/06/27 13:01:18;;;;;;;0.00;0.00;;;18.20;99.90;;;;;;4978582;28;20078;-59
2022/06/27 13:03:45;;;;;;;0.00;0.00;;;18.20;99.90;;;;;;4979875;28;20066;-59